createdAt,value
2024-04-30T00:00:56.554Z,7.58
2024-04-30T00:03:24.035Z,8.11
2024-04-30T00:05:50.947Z,8.61
2024-04-30T00:08:17.910Z,8.06
2024-04-30T00:10:44.929Z,7.27
2024-04-30T00:13:15.917Z,6.54
2024-04-30T00:15:48.690Z,6.56
2024-04-30T00:18:16.802Z,6.63
2024-04-30T00:20:49.571Z,6.72
2024-04-30T00:23:17.086Z,6.41
2024-04-30T00:25:44.074Z,6.02
2024-04-30T00:28:20.642Z,5.58
2024-04-30T00:30:47.628Z,5.98
2024-04-30T00:33:17.558Z,5.23
2024-04-30T00:35:45.060Z,5.01
2024-04-30T00:38:12.982Z,6.01
2024-04-30T00:40:42.936Z,6.80
2024-04-30T00:43:10.167Z,5.90
2024-04-30T00:45:43.955Z,6.56
2024-04-30T00:48:14.287Z,8.16
2024-04-30T00:50:41.537Z,7.69
2024-04-30T00:53:12.366Z,6.53
2024-04-30T00:55:40.080Z,6.40
2024-04-30T00:58:07.712Z,6.88
2024-04-30T01:00:37.982Z,7.19
2024-04-30T01:03:08.650Z,6.64
2024-04-30T01:05:37.624Z,5.88
2024-04-30T01:08:04.689Z,5.58
2024-04-30T01:10:31.774Z,5.09
2024-04-30T01:13:10.107Z,5.21
2024-04-30T01:15:37.282Z,4.77
2024-04-30T01:18:07.348Z,4.91
2024-04-30T01:20:35.676Z,4.80
2024-04-30T01:23:09.830Z,4.80
2024-04-30T01:25:36.478Z,5.21
2024-04-30T01:28:03.386Z,5.03
2024-04-30T01:30:30.404Z,5.28
2024-04-30T01:32:57.179Z,6.22
2024-04-30T01:35:25.744Z,7.33
2024-04-30T01:37:52.977Z,6.66
2024-04-30T01:40:20.552Z,6.96
2024-04-30T01:42:49.039Z,5.70
2024-04-30T01:45:15.568Z,5.46
2024-04-30T01:47:42.236Z,5.73
2024-04-30T01:50:16.365Z,5.84
2024-04-30T01:52:42.971Z,5.55
2024-04-30T01:55:10.450Z,5.70
2024-04-30T01:57:40.028Z,5.12
2024-04-30T02:00:06.876Z,5.17
2024-04-30T02:02:36.673Z,5.38
2024-04-30T02:05:10.898Z,5.14
2024-04-30T02:07:43.444Z,4.85
2024-04-30T02:10:10.150Z,4.84
2024-04-30T02:12:36.714Z,4.81
2024-04-30T02:15:03.309Z,4.84
2024-04-30T02:17:30.055Z,4.80
2024-04-30T02:19:56.664Z,4.64
2024-04-30T02:22:23.779Z,4.69
2024-04-30T02:24:50.773Z,4.66
2024-04-30T02:27:20.692Z,4.19
2024-04-30T02:29:47.638Z,4.45
2024-04-30T02:32:14.726Z,4.42
2024-04-30T02:34:42.776Z,4.48
2024-04-30T02:37:15.855Z,4.37
2024-04-30T02:39:42.830Z,4.53
2024-04-30T02:42:10.065Z,4.37
2024-04-30T02:44:37.272Z,4.42
2024-04-30T02:47:13.568Z,4.89
2024-04-30T02:49:46.526Z,4.69
2024-04-30T02:52:16.929Z,4.42
2024-04-30T02:54:44.733Z,4.75
2024-04-30T02:57:22.594Z,5.51
2024-04-30T02:59:50.035Z,5.60
2024-04-30T03:02:17.970Z,4.75
2024-04-30T03:04:47.465Z,4.31
2024-04-30T03:07:26.438Z,4.34
2024-04-30T03:09:53.598Z,4.52
2024-04-30T03:12:20.785Z,4.27
2024-04-30T03:14:47.945Z,4.33
2024-04-30T03:17:15.832Z,4.22
2024-04-30T03:19:42.928Z,4.44
2024-04-30T03:22:12.670Z,4.35
2024-04-30T03:24:42.198Z,3.95
2024-04-30T03:27:09.571Z,4.00
2024-04-30T03:29:36.510Z,4.12
2024-04-30T03:32:03.484Z,4.05
2024-04-30T03:34:30.496Z,4.03
2024-04-30T03:36:59.697Z,4.08
2024-04-30T03:39:26.620Z,4.22
2024-04-30T03:41:58.193Z,4.48
2024-04-30T03:44:25.000Z,4.22
2024-04-30T03:46:51.918Z,4.47
2024-04-30T03:49:25.276Z,4.26
2024-04-30T03:51:52.207Z,4.17
2024-04-30T03:57:08.376Z,4.46
2024-04-30T03:59:41.064Z,4.78
2024-04-30T04:02:11.682Z,4.45
2024-04-30T04:04:40.778Z,4.51
2024-04-30T04:07:07.461Z,4.52
2024-04-30T04:09:34.087Z,4.49
2024-04-30T04:12:00.788Z,4.34
2024-04-30T04:14:27.361Z,4.49
2024-04-30T04:16:53.902Z,4.74
2024-04-30T04:19:20.478Z,4.58
2024-04-30T04:21:47.047Z,4.58
2024-04-30T04:24:13.632Z,4.92
2024-04-30T04:26:43.356Z,4.83
2024-04-30T04:29:09.916Z,5.16
2024-04-30T04:31:43.358Z,5.15
2024-04-30T04:34:10.356Z,4.75
2024-04-30T04:36:47.184Z,5.10
2024-04-30T04:39:19.552Z,5.21
2024-04-30T04:42:01.128Z,5.67
2024-04-30T04:44:31.870Z,5.39
2024-04-30T04:46:58.856Z,5.84
2024-04-30T04:49:25.868Z,5.94
2024-04-30T04:51:57.383Z,5.86
2024-04-30T04:54:24.519Z,6.03
2024-04-30T04:56:51.982Z,5.42
2024-04-30T04:59:21.542Z,4.75
2024-04-30T05:01:48.528Z,4.96
2024-04-30T05:04:15.708Z,5.00
2024-04-30T05:06:42.369Z,4.70
2024-04-30T05:09:12.226Z,5.87
2024-04-30T05:11:42.088Z,6.48
2024-04-30T05:14:08.722Z,6.40
2024-04-30T05:16:36.410Z,6.92
2024-04-30T05:19:03.144Z,7.35
2024-04-30T05:21:29.766Z,7.73
2024-04-30T05:24:01.219Z,7.79
2024-04-30T05:26:28.729Z,7.66
2024-04-30T05:28:55.489Z,7.89
2024-04-30T05:31:22.126Z,8.30
2024-04-30T05:33:49.384Z,8.84
2024-04-30T05:36:16.569Z,8.86
2024-04-30T05:38:43.264Z,7.72
2024-04-30T05:41:09.865Z,7.68
2024-04-30T05:43:39.622Z,8.30
2024-04-30T05:46:12.426Z,8.59
2024-04-30T05:48:39.757Z,8.54
2024-04-30T05:51:07.680Z,8.26
2024-04-30T05:53:37.228Z,8.16
2024-04-30T05:56:04.078Z,8.83
2024-04-30T05:58:34.276Z,8.19
2024-04-30T06:01:11.505Z,8.26
2024-04-30T06:03:39.338Z,8.57
2024-04-30T06:06:08.907Z,8.32
2024-04-30T06:08:38.797Z,7.97
2024-04-30T06:11:07.431Z,7.98
2024-04-30T06:13:35.727Z,8.00
2024-04-30T06:16:05.659Z,8.17
2024-04-30T06:18:35.387Z,8.10
2024-04-30T06:21:11.755Z,7.81
2024-04-30T06:23:41.732Z,7.39
2024-04-30T06:26:09.592Z,8.20
2024-04-30T06:28:42.747Z,6.78
2024-04-30T06:31:09.427Z,6.82
2024-04-30T06:33:36.589Z,8.32
2024-04-30T06:36:03.256Z,8.67
2024-04-30T06:38:35.861Z,8.64
2024-04-30T06:41:02.672Z,8.61
2024-04-30T06:43:29.388Z,10.51
2024-04-30T06:45:56.217Z,9.78
2024-04-30T06:48:28.478Z,9.89
2024-04-30T06:50:58.390Z,10.38
2024-04-30T06:53:25.435Z,10.52
2024-04-30T06:55:55.292Z,10.26
2024-04-30T06:58:24.001Z,10.03
2024-04-30T07:00:50.676Z,9.94
2024-04-30T07:03:25.010Z,9.96
2024-04-30T07:05:54.212Z,10.22
2024-04-30T07:08:23.704Z,10.18
2024-04-30T07:10:51.747Z,10.43
2024-04-30T07:13:23.635Z,10.38
2024-04-30T07:15:57.256Z,10.19
2024-04-30T07:18:24.738Z,9.30
2024-04-30T07:21:00.437Z,9.04
2024-04-30T07:23:27.592Z,9.25
2024-04-30T07:25:57.937Z,9.21
2024-04-30T07:28:25.162Z,9.45
2024-04-30T07:30:54.665Z,8.51
2024-04-30T07:33:26.328Z,8.74
2024-04-30T07:35:56.545Z,8.97
2024-04-30T07:38:38.148Z,8.33
2024-04-30T07:41:11.467Z,8.78
2024-04-30T07:43:38.781Z,8.46
2024-04-30T07:46:09.556Z,8.87
2024-04-30T07:48:39.967Z,8.55
2024-04-30T07:51:09.429Z,8.84
2024-04-30T07:53:37.253Z,8.74
2024-04-30T07:56:04.180Z,8.74
2024-04-30T07:58:34.174Z,8.91
2024-04-30T08:01:07.075Z,8.31
2024-04-30T08:03:34.616Z,8.57
2024-04-30T08:06:21.112Z,10.88
2024-04-30T08:08:50.344Z,10.23
2024-04-30T08:11:20.537Z,13.78
2024-04-30T08:13:59.054Z,12.90
2024-04-30T08:19:07.660Z,8.83
2024-04-30T08:21:37.538Z,9.09
2024-04-30T08:24:05.500Z,9.26
2024-04-30T08:26:36.340Z,8.86
2024-04-30T08:29:02.964Z,8.29
2024-04-30T08:31:30.165Z,8.29
2024-04-30T08:34:02.817Z,8.45
2024-04-30T08:36:31.257Z,8.14
2024-04-30T08:39:02.937Z,8.54
2024-04-30T08:41:32.919Z,7.61
2024-04-30T08:44:00.299Z,7.35
2024-04-30T08:46:33.891Z,6.93
2024-04-30T08:49:17.754Z,6.97
2024-04-30T08:51:51.274Z,6.72
2024-04-30T08:54:20.793Z,6.90
2024-04-30T08:56:48.819Z,6.89
2024-04-30T08:59:16.108Z,7.56
2024-04-30T09:01:46.696Z,7.26
2024-04-30T09:04:14.021Z,7.51
2024-04-30T09:06:46.576Z,7.10
2024-04-30T09:09:17.679Z,7.29
2024-04-30T09:11:44.702Z,6.70
2024-04-30T09:14:11.773Z,6.79
2024-04-30T09:16:40.412Z,6.38
2024-04-30T09:19:09.416Z,6.50
2024-04-30T09:21:36.418Z,7.01
2024-04-30T09:24:13.505Z,6.67
2024-04-30T09:26:41.540Z,7.11
2024-04-30T09:29:09.752Z,6.83
2024-04-30T09:31:37.566Z,7.07
2024-04-30T09:34:04.788Z,6.89
2024-04-30T09:36:36.430Z,7.16
2024-04-30T09:39:06.450Z,7.43
2024-04-30T09:41:39.847Z,8.25
2024-04-30T09:44:10.066Z,8.14
2024-04-30T09:46:39.717Z,8.33
2024-04-30T09:49:08.699Z,7.56
2024-04-30T09:51:36.737Z,9.29
2024-04-30T09:54:04.206Z,8.11
2024-04-30T09:56:31.213Z,7.88
2024-04-30T09:58:58.637Z,9.76
2024-04-30T10:01:25.847Z,7.46
2024-04-30T10:03:52.904Z,7.17
2024-04-30T10:06:22.890Z,7.14
2024-04-30T10:08:50.170Z,7.70
2024-04-30T10:11:17.215Z,7.48
2024-04-30T10:13:43.930Z,7.54
2024-04-30T10:16:10.639Z,7.30
2024-04-30T10:18:37.236Z,8.74
2024-04-30T10:21:03.993Z,7.74
2024-04-30T10:23:33.798Z,9.52
2024-04-30T10:26:00.402Z,7.96
2024-04-30T10:28:27.019Z,9.02
2024-04-30T10:31:13.079Z,12.26
2024-04-30T10:33:40.211Z,11.06
2024-04-30T10:36:07.172Z,9.48
2024-04-30T10:38:33.804Z,11.60
2024-04-30T10:41:00.517Z,8.55
2024-04-30T10:43:33.112Z,7.09
2024-04-30T10:45:59.702Z,8.78
2024-04-30T10:48:28.557Z,8.97
2024-04-30T10:50:55.207Z,10.14
2024-04-30T10:53:21.771Z,9.97
2024-04-30T10:55:51.569Z,11.87
2024-04-30T10:58:18.299Z,8.70
2024-04-30T11:00:45.082Z,12.06
2024-04-30T11:03:11.680Z,9.91
2024-04-30T11:05:38.595Z,10.29
2024-04-30T11:08:05.494Z,10.34
2024-04-30T11:10:33.471Z,10.49
2024-04-30T11:13:00.722Z,10.82
2024-04-30T11:15:34.220Z,10.66
2024-04-30T11:18:08.053Z,11.25
2024-04-30T11:20:35.170Z,11.50
2024-04-30T11:23:02.732Z,11.29
2024-04-30T11:25:32.238Z,11.13
2024-04-30T11:28:03.976Z,11.79
2024-04-30T11:30:31.236Z,13.87
2024-04-30T11:32:58.394Z,12.74
2024-04-30T11:35:25.532Z,13.11
2024-04-30T11:37:52.856Z,12.52
2024-04-30T11:40:30.997Z,12.77
2024-04-30T11:42:57.998Z,12.62
2024-04-30T11:45:25.285Z,12.73
2024-04-30T11:47:53.309Z,13.19
2024-04-30T11:50:20.644Z,12.34
2024-04-30T11:52:47.775Z,12.20
2024-04-30T11:55:18.651Z,12.05
2024-04-30T11:57:45.844Z,13.31
2024-04-30T12:00:13.019Z,11.30
2024-04-30T12:02:40.153Z,11.12
2024-04-30T12:05:07.539Z,12.10
2024-04-30T12:07:36.469Z,11.24
2024-04-30T12:10:03.518Z,11.24
2024-04-30T12:12:31.189Z,11.14
2024-04-30T12:14:58.237Z,11.09
2024-04-30T12:17:26.516Z,10.70
2024-04-30T12:19:54.059Z,10.62
2024-04-30T12:22:21.138Z,10.46
2024-04-30T12:24:48.785Z,10.85
2024-04-30T12:27:21.832Z,11.06
2024-04-30T12:29:51.410Z,10.75
2024-04-30T12:32:18.006Z,10.36
2024-04-30T12:34:48.015Z,10.60
2024-04-30T12:37:14.906Z,10.31
2024-04-30T12:39:43.691Z,9.83
2024-04-30T12:42:10.478Z,9.02
2024-04-30T12:44:37.066Z,8.39
2024-04-30T12:47:03.660Z,8.34
2024-04-30T12:49:32.987Z,8.36
2024-04-30T12:52:13.112Z,8.30
2024-04-30T12:54:40.155Z,7.97
2024-04-30T12:57:07.299Z,8.25
2024-04-30T12:59:38.175Z,9.44
2024-04-30T13:02:05.446Z,8.88
2024-04-30T13:04:32.210Z,8.50
2024-04-30T13:06:59.076Z,8.36
2024-04-30T13:09:25.711Z,9.64
2024-04-30T13:11:52.288Z,9.88
2024-04-30T13:14:19.073Z,9.05
2024-04-30T13:16:45.731Z,8.49
2024-04-30T13:19:15.853Z,8.52
2024-04-30T13:21:42.816Z,8.51
2024-04-30T13:24:09.698Z,9.39
2024-04-30T13:26:42.273Z,8.40
2024-04-30T13:29:12.451Z,8.41
2024-04-30T13:31:39.540Z,8.46
2024-04-30T13:34:06.674Z,8.52
2024-04-30T13:36:33.699Z,8.82
2024-04-30T13:39:04.329Z,8.45
2024-04-30T13:41:34.889Z,8.04
2024-04-30T13:44:02.628Z,7.60
2024-04-30T13:46:39.836Z,7.63
2024-04-30T13:49:06.989Z,7.58
2024-04-30T13:51:34.684Z,7.56
2024-04-30T13:54:05.022Z,7.24
2024-04-30T13:56:32.093Z,7.37
2024-04-30T13:59:08.235Z,6.81
2024-04-30T14:01:36.273Z,7.40
2024-04-30T14:04:05.208Z,7.22
2024-04-30T14:06:32.312Z,7.36
2024-04-30T14:08:59.344Z,7.18
2024-04-30T14:11:29.151Z,6.85
2024-04-30T14:13:55.836Z,7.58
2024-04-30T14:16:22.575Z,7.33
2024-04-30T14:18:49.420Z,7.13
2024-04-30T14:21:16.020Z,7.17
2024-04-30T14:23:42.643Z,6.62
2024-04-30T14:26:09.565Z,6.67
2024-04-30T14:28:36.527Z,6.68
2024-04-30T14:31:03.231Z,6.61
2024-04-30T14:33:32.995Z,6.57
2024-04-30T14:36:05.618Z,6.65
2024-04-30T14:38:32.277Z,6.86
2024-04-30T14:40:58.906Z,7.00
2024-04-30T14:43:28.612Z,6.41
2024-04-30T14:45:55.518Z,6.42
2024-04-30T14:48:22.186Z,6.21
2024-04-30T14:50:51.891Z,7.59
2024-04-30T14:53:18.783Z,6.36
2024-04-30T14:55:51.494Z,6.90
2024-04-30T14:58:18.084Z,7.94
2024-04-30T15:00:44.803Z,8.19
2024-04-30T15:03:12.076Z,8.23
2024-04-30T15:05:39.101Z,8.32
2024-04-30T15:08:05.734Z,7.73
2024-04-30T15:10:33.556Z,7.42
2024-04-30T15:13:00.662Z,7.37
2024-04-30T15:15:33.716Z,7.41
2024-04-30T15:18:00.953Z,7.31
2024-04-30T15:20:28.142Z,8.70
2024-04-30T15:22:55.099Z,8.66
2024-04-30T15:25:22.629Z,9.95
2024-04-30T15:27:49.854Z,9.37
2024-04-30T15:30:20.087Z,8.53
2024-04-30T15:32:50.281Z,8.08
2024-04-30T15:35:17.387Z,8.24
2024-04-30T15:37:46.584Z,8.36
2024-04-30T15:40:13.684Z,8.05
2024-04-30T15:42:40.684Z,8.20
2024-04-30T15:45:15.888Z,8.15
2024-04-30T15:47:44.057Z,8.27
2024-04-30T15:50:11.047Z,8.31
2024-04-30T15:52:38.236Z,8.37
2024-04-30T15:55:12.148Z,8.57
2024-04-30T15:57:39.389Z,8.89
2024-04-30T16:00:07.446Z,8.56
2024-04-30T16:02:34.484Z,9.08
2024-04-30T16:05:01.816Z,8.70
2024-04-30T16:07:31.147Z,9.13
2024-04-30T16:09:58.214Z,8.88
2024-04-30T16:12:25.370Z,8.45
2024-04-30T16:14:53.656Z,7.79
2024-04-30T16:17:20.325Z,8.38
2024-04-30T16:19:47.219Z,8.45
2024-04-30T16:22:13.909Z,8.10
2024-04-30T16:24:44.188Z,11.55
2024-04-30T16:27:10.790Z,11.58
2024-04-30T16:29:37.421Z,9.27
2024-04-30T16:32:09.520Z,8.72
2024-04-30T16:34:36.755Z,8.38
2024-04-30T16:37:04.017Z,7.47
2024-04-30T16:39:31.710Z,8.28
2024-04-30T16:41:58.311Z,8.42
2024-04-30T16:44:33.105Z,8.01
2024-04-30T16:47:10.227Z,8.32
2024-04-30T16:49:36.881Z,8.65
2024-04-30T16:52:03.542Z,8.55
2024-04-30T16:54:32.910Z,8.49
2024-04-30T16:56:59.839Z,8.52
2024-04-30T16:59:32.452Z,8.14
2024-04-30T17:01:59.104Z,8.25
2024-04-30T17:04:25.836Z,8.28
2024-04-30T17:06:52.813Z,8.70
2024-04-30T17:09:19.865Z,9.66
2024-04-30T17:11:46.485Z,9.12
2024-04-30T17:14:13.057Z,9.00
2024-04-30T17:16:40.262Z,10.17
2024-04-30T17:19:09.528Z,9.72
2024-04-30T17:21:39.286Z,9.91
2024-04-30T17:24:09.053Z,8.41
2024-04-30T17:26:35.981Z,8.08
2024-04-30T17:29:02.931Z,8.42
2024-04-30T17:31:30.083Z,9.06
2024-04-30T17:33:57.500Z,8.74
2024-04-30T17:36:24.568Z,8.36
2024-04-30T17:38:51.555Z,8.42
2024-04-30T17:41:18.949Z,7.53
2024-04-30T17:43:46.054Z,7.22
2024-04-30T17:46:13.020Z,7.24
2024-04-30T17:48:40.103Z,7.25
2024-04-30T17:51:07.108Z,7.51
2024-04-30T17:53:34.120Z,7.31
2024-04-30T17:56:01.078Z,6.76
2024-04-30T17:58:28.100Z,6.95
2024-04-30T18:00:55.264Z,6.31
2024-04-30T18:03:31.349Z,6.76
2024-04-30T18:05:58.323Z,6.57
2024-04-30T18:08:25.803Z,6.43
2024-04-30T18:10:54.435Z,6.53
2024-04-30T18:13:21.898Z,6.42
2024-04-30T18:15:48.984Z,7.34
2024-04-30T18:18:16.273Z,8.95
2024-04-30T18:20:43.289Z,8.94
2024-04-30T18:23:12.483Z,10.04
2024-04-30T18:25:39.711Z,10.23
2024-04-30T18:28:06.658Z,10.11
2024-04-30T18:30:33.728Z,10.96
2024-04-30T18:33:00.804Z,11.65
2024-04-30T18:35:27.797Z,11.76
2024-04-30T18:37:54.755Z,11.59
2024-04-30T18:40:27.708Z,11.80
2024-04-30T18:42:54.548Z,9.87
2024-04-30T18:45:21.117Z,8.78
2024-04-30T18:47:47.819Z,7.99
2024-04-30T18:50:17.475Z,7.85
2024-04-30T18:52:44.502Z,8.49
2024-04-30T18:55:11.069Z,8.62
2024-04-30T18:57:37.652Z,8.24
2024-04-30T19:00:04.280Z,8.12
2024-04-30T19:02:30.890Z,7.69
2024-04-30T19:04:57.537Z,7.62
2024-04-30T19:07:24.131Z,7.26
2024-04-30T19:09:50.911Z,6.93
2024-04-30T19:12:17.792Z,6.78
2024-04-30T19:14:44.492Z,7.20
2024-04-30T19:17:11.100Z,7.31
2024-04-30T19:19:37.802Z,7.23
2024-04-30T19:22:04.618Z,7.15
2024-04-30T19:24:31.262Z,7.07
2024-04-30T19:26:57.865Z,7.03
2024-04-30T19:29:24.416Z,7.25
2024-04-30T19:31:50.983Z,6.53
2024-04-30T19:34:17.656Z,6.82
2024-04-30T19:36:44.369Z,7.33
2024-04-30T19:39:11.007Z,7.44
2024-04-30T19:41:37.987Z,8.38
2024-04-30T19:44:04.927Z,9.89
2024-04-30T19:46:31.882Z,9.66
2024-04-30T19:48:58.919Z,9.62
2024-04-30T19:51:25.998Z,10.41
2024-04-30T19:53:53.104Z,9.65
2024-04-30T19:56:20.220Z,9.17
2024-04-30T19:58:50.055Z,8.84
2024-04-30T20:01:17.792Z,9.10
2024-04-30T20:03:44.513Z,8.71
2024-04-30T20:06:11.040Z,8.79
2024-04-30T20:08:37.574Z,8.06
2024-04-30T20:11:04.480Z,7.47
2024-04-30T20:13:31.339Z,7.63
2024-04-30T20:15:57.938Z,7.55
2024-04-30T20:18:24.556Z,7.31
2024-04-30T20:20:51.194Z,7.00
2024-04-30T20:23:20.702Z,6.92
2024-04-30T20:25:47.320Z,7.42
2024-04-30T20:28:13.996Z,7.82
2024-04-30T20:30:41.636Z,7.62
2024-04-30T20:33:12.179Z,7.17
2024-04-30T20:35:41.909Z,7.07
2024-04-30T20:38:11.584Z,7.34
2024-04-30T20:40:38.154Z,7.43
2024-04-30T20:43:07.745Z,7.08
2024-04-30T20:45:37.462Z,6.56
2024-04-30T20:48:07.140Z,6.47
2024-04-30T20:50:33.807Z,6.35
2024-04-30T20:53:00.439Z,6.53
2024-04-30T20:55:26.965Z,6.18
2024-04-30T20:57:53.537Z,6.54
2024-04-30T21:00:20.555Z,6.75
2024-04-30T21:02:47.853Z,7.39
2024-04-30T21:05:15.914Z,7.31
2024-04-30T21:07:42.616Z,6.84
2024-04-30T21:10:09.515Z,6.95
2024-04-30T21:12:36.617Z,7.00
2024-04-30T21:15:03.236Z,7.04
2024-04-30T21:17:29.894Z,7.27
2024-04-30T21:20:01.054Z,7.17
2024-04-30T21:22:27.675Z,6.97
2024-04-30T21:24:54.485Z,6.83
2024-04-30T21:27:22.419Z,6.28
2024-04-30T21:29:49.018Z,6.21
2024-04-30T21:32:15.577Z,6.41
2024-04-30T21:34:44.163Z,5.89
2024-04-30T21:37:10.818Z,5.90
2024-04-30T21:39:37.513Z,6.04
2024-04-30T21:42:04.292Z,6.53
2024-04-30T21:44:30.901Z,6.50
2024-04-30T21:46:57.606Z,6.37
2024-04-30T21:49:25.074Z,7.09
2024-04-30T21:51:51.809Z,7.99
2024-04-30T21:54:18.395Z,7.18
2024-04-30T21:56:45.084Z,6.68
2024-04-30T21:59:11.644Z,5.54
2024-04-30T22:01:38.329Z,5.75
2024-04-30T22:04:05.530Z,5.75
2024-04-30T22:06:32.782Z,5.64
2024-04-30T22:08:59.735Z,5.30
2024-04-30T22:11:26.724Z,5.54
2024-04-30T22:13:53.657Z,5.44
2024-04-30T22:16:20.565Z,5.79
2024-04-30T22:18:47.600Z,5.92
2024-04-30T22:21:18.306Z,5.80
2024-04-30T22:23:46.517Z,5.86
2024-04-30T22:26:13.525Z,5.58
2024-04-30T22:28:40.998Z,5.47
2024-04-30T22:31:08.078Z,5.46
2024-04-30T22:33:35.163Z,5.63
2024-04-30T22:36:02.160Z,5.39
2024-04-30T22:38:29.112Z,5.06
2024-04-30T22:40:56.089Z,5.25
2024-04-30T22:43:23.195Z,5.23
2024-04-30T22:45:50.301Z,5.23
2024-04-30T22:48:17.468Z,6.05
2024-04-30T22:50:44.475Z,6.05
2024-04-30T22:53:11.413Z,5.32
2024-04-30T22:55:38.372Z,5.54
2024-04-30T22:58:05.585Z,6.09
2024-04-30T23:00:32.645Z,5.89
2024-04-30T23:02:59.679Z,5.79
2024-04-30T23:05:26.608Z,5.69
2024-04-30T23:07:53.534Z,5.42
2024-04-30T23:10:23.298Z,5.33
2024-04-30T23:12:50.325Z,5.50
2024-04-30T23:15:17.575Z,5.64
2024-04-30T23:17:44.779Z,6.14
2024-04-30T23:20:11.799Z,6.40
2024-04-30T23:22:38.736Z,5.95
2024-04-30T23:25:05.696Z,6.84
2024-04-30T23:27:35.378Z,6.14
2024-04-30T23:30:02.421Z,6.49
2024-04-30T23:32:31.915Z,5.67
2024-04-30T23:34:59.029Z,5.21
2024-04-30T23:37:25.952Z,5.30
2024-04-30T23:39:52.940Z,5.67
2024-04-30T23:42:23.204Z,6.13
2024-04-30T23:44:50.749Z,5.15
2024-04-30T23:47:17.708Z,5.36
2024-04-30T23:49:44.621Z,6.57
2024-04-30T23:52:11.694Z,5.38
2024-04-30T23:54:38.732Z,5.21
2024-04-30T23:57:05.680Z,5.18
2024-04-30T23:59:32.624Z,4.92
